createdAt,value
2018-12-05T00:03:27.955Z,4.50
2018-12-05T00:08:56.121Z,4.50
2018-12-05T00:14:24.282Z,4.50
2018-12-05T00:19:52.344Z,4.50
2018-12-05T00:25:20.445Z,4.50
2018-12-05T00:30:48.550Z,4.50
2018-12-05T00:36:16.652Z,4.50
2018-12-05T00:41:44.756Z,4.50
2018-12-05T00:47:12.859Z,4.50
2018-12-05T00:52:40.950Z,4.40
2018-12-05T00:58:09.040Z,4.40
2018-12-05T01:03:37.178Z,4.40
2018-12-05T01:09:10.468Z,4.40
2018-12-05T01:14:38.573Z,4.30
2018-12-05T01:20:06.773Z,4.30
2018-12-05T01:25:34.911Z,4.30
2018-12-05T01:31:03.078Z,4.20
2018-12-05T01:36:31.288Z,4.20
2018-12-05T01:41:59.523Z,4.20
2018-12-05T01:47:27.982Z,4.20
2018-12-05T01:52:56.147Z,4.20
2018-12-05T01:58:24.271Z,4.20
2018-12-05T02:03:52.364Z,4.10
2018-12-05T02:09:20.456Z,4.10
2018-12-05T02:14:48.605Z,4.10
2018-12-05T02:20:16.680Z,4.10
2018-12-05T02:25:45.146Z,4.10
2018-12-05T02:31:13.287Z,4.10
2018-12-05T02:36:41.345Z,4.10
2018-12-05T02:42:09.423Z,4.10
2018-12-05T02:47:37.544Z,4.10
2018-12-05T02:53:05.805Z,4.10
2018-12-05T02:58:33.951Z,4.10
2018-12-05T03:04:02.201Z,4.10
2018-12-05T03:09:30.296Z,4.10
2018-12-05T03:14:58.402Z,4.00
2018-12-05T03:20:26.553Z,4.00
2018-12-05T03:25:54.679Z,4.00
2018-12-05T03:31:22.879Z,4.00
2018-12-05T03:36:50.971Z,4.00
2018-12-05T03:42:19.091Z,4.00
2018-12-05T03:47:47.183Z,3.90
2018-12-05T03:53:15.389Z,3.90
2018-12-05T03:58:43.468Z,3.90
2018-12-05T04:04:11.576Z,3.90
2018-12-05T04:09:39.655Z,3.90
2018-12-05T04:15:07.904Z,3.90
2018-12-05T04:20:36.046Z,3.90
2018-12-05T04:26:04.175Z,3.90
2018-12-05T04:31:32.370Z,3.90
2018-12-05T04:37:00.760Z,3.90
2018-12-05T04:42:28.982Z,3.90
2018-12-05T04:47:57.433Z,3.90
2018-12-05T04:53:25.672Z,3.90
2018-12-05T04:58:53.739Z,3.90
2018-12-05T05:04:21.842Z,3.90
2018-12-05T05:09:49.920Z,3.90
2018-12-05T05:15:18.028Z,3.90
2018-12-05T05:20:46.177Z,3.90
2018-12-05T05:26:14.289Z,3.90
2018-12-05T05:31:42.387Z,3.90
2018-12-05T05:37:11.573Z,3.90
2018-12-05T05:42:43.706Z,3.90
2018-12-05T05:48:11.816Z,3.90
2018-12-05T05:53:41.777Z,3.90
2018-12-05T05:59:09.851Z,3.80
2018-12-05T06:04:38.947Z,3.80
2018-12-05T06:10:07.419Z,3.80
2018-12-05T06:15:35.498Z,3.80
2018-12-05T06:21:04.550Z,3.80
2018-12-05T06:26:32.646Z,3.80
2018-12-05T06:32:02.674Z,3.80
2018-12-05T06:37:30.748Z,3.80
2018-12-05T06:42:58.828Z,3.80
2018-12-05T06:48:28.891Z,3.80
2018-12-05T06:53:56.963Z,3.90
2018-12-05T06:59:25.042Z,3.90
2018-12-05T07:04:53.116Z,3.90
2018-12-05T07:10:21.200Z,3.90
2018-12-05T07:15:54.052Z,3.90
2018-12-05T07:21:22.122Z,4.00
2018-12-05T07:26:50.202Z,4.00
2018-12-05T07:32:18.275Z,4.00
2018-12-05T07:37:46.355Z,4.00
2018-12-05T07:43:14.438Z,4.10
2018-12-05T07:48:42.502Z,4.10
2018-12-05T07:54:10.586Z,4.10
2018-12-05T07:59:38.651Z,4.10
2018-12-05T08:05:07.194Z,4.20
2018-12-05T08:10:35.271Z,4.20
2018-12-05T08:16:03.346Z,4.20
2018-12-05T08:21:31.418Z,4.20
2018-12-05T08:26:59.500Z,4.30
2018-12-05T08:32:27.590Z,4.30
2018-12-05T08:38:00.511Z,4.40
2018-12-05T08:43:28.895Z,4.50
2018-12-05T08:48:56.979Z,4.60
2018-12-05T08:54:25.054Z,4.70
2018-12-05T08:59:53.145Z,4.80
2018-12-05T09:05:21.202Z,4.80
2018-12-05T09:10:49.291Z,4.90
2018-12-05T09:16:17.372Z,4.90
2018-12-05T09:21:45.439Z,4.90
2018-12-05T09:27:13.524Z,5.00
2018-12-05T09:32:41.603Z,5.00
2018-12-05T09:38:09.677Z,5.10
2018-12-05T09:43:37.745Z,5.20
2018-12-05T09:49:06.791Z,5.30
2018-12-05T09:54:34.869Z,5.40
2018-12-05T10:00:02.998Z,5.40
2018-12-05T10:05:31.080Z,5.50
2018-12-05T10:10:59.158Z,5.60
2018-12-05T10:16:27.234Z,5.70
2018-12-05T10:21:55.304Z,5.80
2018-12-05T10:27:23.367Z,5.90
2018-12-05T10:32:51.447Z,6.00
2018-12-05T10:38:19.515Z,6.10
2018-12-05T10:43:48.567Z,6.10
2018-12-05T10:49:16.746Z,6.20
2018-12-05T10:54:44.822Z,6.30
2018-12-05T11:00:14.863Z,6.30
2018-12-05T11:05:48.426Z,6.30
2018-12-05T11:11:22.074Z,6.30
2018-12-05T11:16:53.913Z,6.30
2018-12-05T11:22:27.766Z,6.20
2018-12-05T11:27:55.900Z,6.20
2018-12-05T11:33:24.035Z,6.10
2018-12-05T11:38:52.110Z,6.20
2018-12-05T11:44:20.180Z,6.20
2018-12-05T11:49:48.265Z,6.20
2018-12-05T11:55:16.335Z,6.20
2018-12-05T12:00:44.450Z,6.20
2018-12-05T12:06:13.535Z,6.20
2018-12-05T12:11:41.674Z,6.10
2018-12-05T12:17:09.762Z,6.10
2018-12-05T12:22:37.903Z,6.10
2018-12-05T12:28:06.092Z,6.10
2018-12-05T12:33:34.161Z,6.00
2018-12-05T12:39:02.218Z,6.00
2018-12-05T12:44:30.294Z,6.00
2018-12-05T12:49:58.378Z,5.90
2018-12-05T12:55:26.460Z,5.90
2018-12-05T13:00:54.540Z,6.00
2018-12-05T13:06:22.631Z,5.90
2018-12-05T13:11:50.700Z,5.90
2018-12-05T13:17:18.769Z,5.80
2018-12-05T13:22:46.844Z,5.80
2018-12-05T13:28:14.913Z,5.80
2018-12-05T13:33:43.034Z,5.80
2018-12-05T13:39:11.999Z,5.80
2018-12-05T13:44:40.075Z,5.80
2018-12-05T13:50:08.199Z,5.80
2018-12-05T13:55:36.371Z,5.80
2018-12-05T14:01:04.438Z,5.70
2018-12-05T14:06:32.611Z,5.70
2018-12-05T14:12:00.699Z,5.70
2018-12-05T14:17:28.819Z,5.70
2018-12-05T14:22:56.900Z,5.60
2018-12-05T14:28:25.000Z,5.50
2018-12-05T14:33:53.128Z,5.50
2018-12-05T14:39:21.240Z,5.50
2018-12-05T14:44:49.369Z,5.50
2018-12-05T14:50:17.439Z,5.50
2018-12-05T14:55:45.523Z,5.50
2018-12-05T15:01:13.644Z,5.50
2018-12-05T15:06:52.540Z,5.40
2018-12-05T15:12:20.671Z,5.40
2018-12-05T15:17:48.751Z,5.40
2018-12-05T15:23:16.814Z,5.30
2018-12-05T15:28:45.868Z,5.20
2018-12-05T15:34:13.937Z,5.20
2018-12-05T15:39:42.006Z,5.20
2018-12-05T15:45:10.094Z,5.20
2018-12-05T15:50:40.058Z,5.20
2018-12-05T15:56:11.567Z,5.20
2018-12-05T16:01:40.174Z,5.10
2018-12-05T16:07:10.506Z,5.10
2018-12-05T16:12:38.580Z,5.20
2018-12-05T16:18:06.647Z,5.10
2018-12-05T16:23:34.726Z,5.10
2018-12-05T16:29:02.801Z,5.10
2018-12-05T16:34:30.983Z,5.00
2018-12-05T16:39:59.057Z,5.00
2018-12-05T16:45:27.121Z,4.90
2018-12-05T16:50:55.191Z,4.90
2018-12-05T16:56:23.264Z,4.90
2018-12-05T17:01:51.339Z,4.90
2018-12-05T17:07:19.404Z,4.80
2018-12-05T17:12:47.475Z,4.80
2018-12-05T17:18:15.545Z,4.80
2018-12-05T17:23:43.618Z,4.70
2018-12-05T17:29:11.695Z,4.70
2018-12-05T17:34:39.775Z,4.60
2018-12-05T17:40:07.963Z,4.60
2018-12-05T17:45:37.042Z,4.60
2018-12-05T17:51:05.357Z,4.50
2018-12-05T17:56:35.001Z,4.50
2018-12-05T18:02:03.340Z,4.50
2018-12-05T18:07:32.426Z,4.50
2018-12-05T18:13:00.498Z,4.50
2018-12-05T18:18:28.562Z,4.50
2018-12-05T18:23:56.660Z,4.50
2018-12-05T18:29:24.794Z,4.40
2018-12-05T18:34:52.878Z,4.40
2018-12-05T18:40:21.171Z,4.40
2018-12-05T18:45:49.293Z,4.30
2018-12-05T18:51:17.431Z,4.30
2018-12-05T18:56:45.494Z,4.30
2018-12-05T19:02:13.571Z,4.30
2018-12-05T19:07:41.652Z,4.30
2018-12-05T19:13:09.877Z,4.30
2018-12-05T19:18:37.965Z,4.30
2018-12-05T19:24:06.055Z,4.40
2018-12-05T19:29:34.200Z,4.30
2018-12-05T19:35:02.500Z,4.40
2018-12-05T19:40:30.738Z,4.40
2018-12-05T19:46:01.016Z,4.40
2018-12-05T19:51:29.169Z,4.30
2018-12-05T19:56:57.259Z,4.30
2018-12-05T20:02:25.337Z,4.30
2018-12-05T20:07:55.363Z,4.30
2018-12-05T20:13:24.362Z,4.30
2018-12-05T20:18:52.562Z,4.30
2018-12-05T20:24:20.644Z,4.20
2018-12-05T20:29:49.594Z,4.20
2018-12-05T20:35:17.670Z,4.20
2018-12-05T20:40:45.835Z,4.10
2018-12-05T20:46:13.966Z,4.10
2018-12-05T20:51:42.047Z,4.10
2018-12-05T20:57:14.903Z,4.10
2018-12-05T21:02:42.979Z,4.10
2018-12-05T21:08:11.084Z,4.00
2018-12-05T21:13:41.114Z,4.00
2018-12-05T21:19:09.186Z,3.90
2018-12-05T21:24:37.247Z,3.90
2018-12-05T21:30:06.909Z,3.80
2018-12-05T21:35:35.057Z,3.80
2018-12-05T21:41:03.231Z,3.80
2018-12-05T21:46:31.421Z,3.80
2018-12-05T21:52:00.406Z,3.80
2018-12-05T21:57:28.530Z,3.80
2018-12-05T22:02:56.606Z,3.80
2018-12-05T22:08:24.683Z,3.80
2018-12-05T22:13:52.764Z,3.80
2018-12-05T22:19:20.870Z,3.80
2018-12-05T22:24:48.931Z,3.70
2018-12-05T22:30:17.134Z,3.80
2018-12-05T22:35:46.247Z,3.70
2018-12-05T22:41:14.325Z,3.70
2018-12-05T22:46:42.761Z,3.70
2018-12-05T22:52:10.846Z,3.70
2018-12-05T22:57:38.930Z,3.70
2018-12-05T23:03:07.022Z,3.70
2018-12-05T23:08:35.081Z,3.70
2018-12-05T23:14:04.174Z,3.70
2018-12-05T23:19:32.245Z,3.70
2018-12-05T23:25:00.315Z,3.70
2018-12-05T23:30:28.604Z,3.70
2018-12-05T23:35:56.971Z,3.70
2018-12-05T23:41:25.248Z,3.70
2018-12-05T23:46:53.488Z,3.70
2018-12-05T23:52:21.719Z,3.70
2018-12-05T23:57:49.926Z,3.70
